Time;durP1;ratioP1;P1;durP2;ratioP2;P2;SDS_P1;SDS_P2;PMS_P1;PMS_P2;Temp;Humidity;BMP_temperature;BMP_pressure;BME280_temperature;BME280_humidity;BME280_pressure;Samples;Min_cycle;Max_cycle;Signal;HPM_P1;HPM_P2
2023/05/27 05:16:51;;;;;;;20.67;6.00;;;14.50;99.90;;;;;;2609858;54;19934;31
2023/05/27 05:22:34;;;;;;;15.80;5.60;;;14.90;99.90;;;;;;2601965;54;19938;31
2023/05/27 05:31:23;;;;;;;17.33;5.78;;;15.50;99.90;;;;;;2602242;54;20314;31
2023/05/27 05:37:15;;;;;;;17.45;6.18;;;16.00;99.90;;;;;;2602655;54;20536;31
2023/05/27 05:39:57;;;;;;;20.15;6.15;;;16.20;99.90;;;;;;2603700;54;20033;31
2023/05/27 05:48:33;;;;;;;15.43;4.70;;;17.00;99.90;;;;;;2603893;54;20131;31
2023/05/27 05:51:09;;;;;;;13.38;3.92;;;17.10;99.90;;;;;;2609428;39;21476;31
2023/05/27 05:54:12;;;;;;;21.25;4.35;;;17.30;99.90;;;;;;2665289;39;21046;31
2023/05/27 05:57:00;;;;;;;16.67;4.25;;;17.50;99.90;;;;;;2622231;46;20034;31
2023/05/27 05:59:44;;;;;;;;;;;17.70;99.90;;;;;;2603843;54;20023;31
2023/05/27 06:02:25;;;;;;;12.23;3.38;;;17.80;99.90;;;;;;2619656;39;21267;31
2023/05/27 06:05:03;;;;;;;11.68;3.17;;;18.00;99.90;;;;;;2603653;54;21569;31
2023/05/27 06:07:51;;;;;;;12.35;3.30;;;18.10;99.90;;;;;;2603011;54;20097;31
2023/05/27 06:10:34;;;;;;;17.02;3.45;;;18.20;99.90;;;;;;2773092;31;21549;31
2023/05/27 06:13:10;;;;;;;10.40;3.35;;;18.40;99.90;;;;;;2603606;54;20768;31
2023/05/27 06:15:50;;;;;;;10.55;3.20;;;18.50;99.90;;;;;;2603540;54;20034;31
2023/05/27 06:18:36;;;;;;;8.05;2.60;;;18.80;99.90;;;;;;2603472;54;20092;31
2023/05/27 06:21:14;;;;;;;14.40;4.60;;;18.90;99.90;;;;;;2603541;54;20095;31
2023/05/27 06:24:28;;;;;;;22.23;4.80;;;19.00;99.90;;;;;;2603418;54;20053;31
2023/05/27 06:27:34;;;;;;;16.70;4.28;;;19.20;99.90;;;;;;2603496;54;20019;31
2023/05/27 06:30:27;;;;;;;12.73;3.30;;;19.40;99.90;;;;;;2603522;54;20038;31
2023/05/27 06:33:12;;;;;;;15.85;2.67;;;19.60;99.90;;;;;;2622056;46;20022;31
2023/05/27 06:41:50;;;;;;;14.07;4.72;;;20.00;99.90;;;;;;2603200;54;20901;31
2023/05/27 06:44:54;;;;;;;5.82;2.00;;;20.00;99.90;;;;;;2603429;54;20048;31
2023/05/27 06:57:25;;;;;;;12.40;3.30;;;20.30;99.70;;;;;;2603637;54;20828;31
2023/05/27 07:00:38;;;;;;;9.10;2.45;;;20.40;99.70;;;;;;2603576;54;20034;31
2023/05/27 07:10:50;;;;;;;8.60;2.03;;;20.90;96.00;;;;;;2603604;54;20053;31
2023/05/27 07:26:51;;;;;;;8.63;2.50;;;21.60;93.50;;;;;;2621185;46;20018;31
2023/05/27 07:40:03;;;;;;;11.98;3.50;;;21.80;93.60;;;;;;2603020;54;20947;31
2023/05/27 08:02:46;;;;;;;;;;;;;;;;;;;;;
2023/05/27 09:37:04;;;;;;;8.70;1.95;;;24.30;73.90;;;;;;2603546;54;20880;31
2023/05/27 09:40:29;;;;;;;7.60;1.88;;;24.20;75.60;;;;;;2604010;54;20875;31
2023/05/27 09:55:03;;;;;;;11.00;2.83;;;24.40;72.90;;;;;;2603361;54;20773;31
2023/05/27 10:01:30;;;;;;;6.90;1.80;;;24.30;74.30;;;;;;2603235;54;20041;31
2023/05/27 10:18:13;;;;;;;7.07;2.53;;;24.20;70.70;;;;;;2603442;54;20407;31
2023/05/27 10:21:12;;;;;;;6.82;2.03;;;24.20;70.00;;;;;;2603237;54;20756;31
2023/05/27 10:27:22;;;;;;;6.65;1.48;;;24.30;72.90;;;;;;2603415;54;20874;31
2023/05/27 10:39:04;;;;;;;5.73;2.17;;;24.00;69.20;;;;;;2603454;54;20045;31
2023/05/27 10:45:04;;;;;;;5.30;2.35;;;23.90;69.70;;;;;;2603615;54;20034;31
2023/05/27 10:48:02;;;;;;;5.85;1.67;;;23.90;72.00;;;;;;2603263;54;21160;31
2023/05/27 10:54:04;;;;;;;;;;;;;;;;;;;;;
2023/05/27 10:57:19;;;;;;;5.45;2.00;;;23.80;68.80;;;;;;2621886;46;20031;31
2023/05/27 11:03:26;;;;;;;6.55;1.85;;;23.90;71.00;;;;;;2602743;54;20052;31
2023/05/27 11:06:07;;;;;;;3.00;1.40;;;23.80;68.60;;;;;;2603610;54;20081;31
2023/05/27 11:09:14;;;;;;;3.53;1.77;;;23.70;68.40;;;;;;2621900;46;20028;31
2023/05/27 11:15:10;;;;;;;3.30;1.30;;;23.70;67.70;;;;;;2702034;39;21445;31
2023/05/27 11:17:47;;;;;;;4.57;1.40;;;23.80;66.30;;;;;;2603080;54;20849;31
2023/05/27 11:20:52;;;;;;;4.10;1.63;;;23.80;66.30;;;;;;2602567;54;20874;31
2023/05/27 11:24:02;;;;;;;6.32;1.70;;;23.60;65.20;;;;;;2603365;54;20033;31
2023/05/27 11:26:42;;;;;;;5.05;1.80;;;23.50;66.90;;;;;;2603304;54;20027;31
2023/05/27 11:29:19;;;;;;;4.88;1.73;;;23.30;67.00;;;;;;2603025;54;20762;31
2023/05/27 11:35:26;;;;;;;4.47;1.70;;;23.10;65.40;;;;;;2621949;46;20026;31
2023/05/27 11:38:26;;;;;;;4.17;1.50;;;23.10;64.70;;;;;;2603276;54;20032;31
2023/05/27 11:41:25;;;;;;;3.50;1.40;;;23.10;68.10;;;;;;2603171;54;20030;31
2023/05/27 11:44:14;;;;;;;2.40;1.20;;;23.10;66.10;;;;;;2603482;54;20029;31
2023/05/27 11:47:05;;;;;;;6.05;1.73;;;23.00;69.30;;;;;;2603116;54;20026;31
2023/05/27 11:52:58;;;;;;;4.40;1.70;;;23.10;66.20;;;;;;2602928;54;20728;31
2023/05/27 11:55:44;;;;;;;4.05;1.30;;;23.20;66.60;;;;;;2603335;54;21767;31
2023/05/27 11:58:28;;;;;;;3.30;1.60;;;23.10;65.60;;;;;;2603476;54;20044;31
2023/05/27 12:03:57;;;;;;;4.38;1.75;;;23.10;68.10;;;;;;2602914;54;20331;31
2023/05/27 12:06:57;;;;;;;2.92;1.30;;;23.10;67.70;;;;;;2621668;46;20030;31
2023/05/27 12:09:39;;;;;;;7.30;2.08;;;23.20;68.60;;;;;;2621465;46;20034;31
2023/05/27 12:12:24;;;;;;;6.32;1.70;;;23.00;67.90;;;;;;2602970;54;20026;31
2023/05/27 12:15:12;;;;;;;5.38;2.10;;;22.90;66.60;;;;;;2602228;54;20049;31
2023/05/27 12:17:52;;;;;;;3.70;1.48;;;22.70;68.30;;;;;;2602240;54;20726;31
2023/05/27 12:20:32;;;;;;;4.28;1.80;;;22.70;69.60;;;;;;2621529;46;20053;31
2023/05/27 12:23:13;;;;;;;5.50;1.88;;;22.70;70.00;;;;;;2603212;54;20855;31
2023/05/27 12:25:51;;;;;;;3.72;1.70;;;22.70;67.80;;;;;;2603246;54;20833;31
2023/05/27 12:31:47;;;;;;;4.88;1.60;;;22.70;68.70;;;;;;2602449;54;20100;31
2023/05/27 12:34:30;;;;;;;5.00;1.20;;;22.70;70.10;;;;;;2603013;54;19938;31
2023/05/27 12:37:08;;;;;;;4.00;1.42;;;22.60;66.80;;;;;;2603043;54;20037;31
2023/05/27 12:39:46;;;;;;;20.58;1.67;;;22.60;67.70;;;;;;2603035;54;20085;31
2023/05/27 12:42:41;;;;;;;3.78;1.40;;;22.50;68.80;;;;;;2602212;54;20097;31
2023/05/27 12:45:31;;;;;;;3.58;1.50;;;22.40;67.60;;;;;;2602793;54;20959;31
2023/05/27 12:54:06;;;;;;;4.93;1.60;;;22.20;71.50;;;;;;2602383;54;19969;31
2023/05/27 12:59:59;;;;;;;5.30;1.70;;;22.30;69.90;;;;;;2602955;54;20772;31
2023/05/27 13:02:48;;;;;;;3.15;1.20;;;22.30;69.80;;;;;;2636171;39;21404;31
2023/05/27 13:05:53;;;;;;;3.83;1.23;;;22.30;68.60;;;;;;2602648;54;20810;31
2023/05/27 13:08:42;;;;;;;4.68;1.25;;;22.20;68.60;;;;;;2602978;54;20048;31
2023/05/27 13:11:26;;;;;;;2.60;1.13;;;22.20;70.30;;;;;;2602885;54;20910;31
2023/05/27 13:14:07;;;;;;;5.10;1.60;;;22.10;69.90;;;;;;2603341;54;20057;31
2023/05/27 13:16:49;;;;;;;4.13;1.53;;;22.00;69.40;;;;;;2602906;54;20033;31
2023/05/27 13:19:33;;;;;;;2.30;1.20;;;21.90;69.70;;;;;;2602937;54;20895;31
2023/05/27 13:25:11;;;;;;;;;;;;;;;;;;;;;
2023/05/27 13:27:48;;;;;;;6.65;1.58;;;21.90;70.20;;;;;;2602855;54;20043;31
2023/05/27 13:30:35;;;;;;;4.32;1.20;;;21.90;70.90;;;;;;2603064;54;20030;31
2023/05/27 13:35:51;;;;;;;3.30;1.55;;;21.80;69.30;;;;;;2602894;54;20029;31
2023/05/27 13:38:48;;;;;;;2.97;1.23;;;21.80;69.80;;;;;;2602725;54;20046;31
2023/05/27 13:41:43;;;;;;;3.95;1.50;;;21.80;70.10;;;;;;2602709;54;20076;31
2023/05/27 13:44:25;;;;;;;4.82;1.45;;;21.80;71.80;;;;;;2602121;54;20056;31
2023/05/27 13:47:13;;;;;;;5.67;1.70;;;21.70;71.00;;;;;;2602731;54;19953;31
2023/05/27 13:50:05;;;;;;;8.57;1.67;;;21.70;70.80;;;;;;2602720;54;20088;31
2023/05/27 13:52:57;;;;;;;3.17;1.33;;;21.70;69.70;;;;;;2603232;54;20089;31
2023/05/27 13:55:38;;;;;;;2.92;1.20;;;21.60;70.30;;;;;;2621695;46;20101;31
2023/05/27 13:58:26;;;;;;;4.57;1.73;;;21.60;71.20;;;;;;2602839;54;20160;31
2023/05/27 14:01:07;;;;;;;3.58;1.30;;;21.60;70.60;;;;;;2603462;54;20927;31
2023/05/27 14:03:43;;;;;;;4.60;1.77;;;21.40;71.10;;;;;;2603403;54;20026;31
2023/05/27 14:09:26;;;;;;;3.37;1.10;;;21.40;69.60;;;;;;2602663;54;20038;31
2023/05/27 14:12:05;;;;;;;4.22;1.40;;;21.30;69.90;;;;;;2603594;54;20258;31
2023/05/27 14:14:50;;;;;;;9.95;1.98;;;21.30;70.90;;;;;;2622053;46;20034;31
2023/05/27 14:17:46;;;;;;;4.82;1.40;;;21.30;71.20;;;;;;2603391;54;20830;31
2023/05/27 14:20:25;;;;;;;4.70;1.20;;;21.40;70.50;;;;;;2621653;46;20145;31
2023/05/27 14:23:10;;;;;;;4.15;1.20;;;21.30;69.60;;;;;;2603289;54;20860;31
2023/05/27 14:25:54;;;;;;;2.90;1.20;;;21.30;70.20;;;;;;2603437;54;20939;31
2023/05/27 14:28:34;;;;;;;4.37;1.40;;;21.20;68.80;;;;;;2621753;46;20050;31
2023/05/27 14:31:16;;;;;;;4.43;1.13;;;21.10;69.10;;;;;;2603156;54;20986;31
2023/05/27 14:34:00;;;;;;;4.05;1.45;;;21.10;68.20;;;;;;2621549;46;20030;31
2023/05/27 14:36:41;;;;;;;4.85;1.60;;;21.00;69.60;;;;;;2621571;46;20057;31
2023/05/27 14:42:17;;;;;;;4.32;1.63;;;21.00;71.90;;;;;;2701042;39;21464;31
2023/05/27 14:44:55;;;;;;;5.65;1.35;;;21.10;71.70;;;;;;2602599;54;20026;31
2023/05/27 14:50:25;;;;;;;6.00;1.42;;;21.20;70.60;;;;;;2608391;39;21474;31
2023/05/27 14:53:16;;;;;;;4.00;1.50;;;21.10;71.40;;;;;;2603238;54;20050;31
2023/05/27 14:58:55;;;;;;;5.03;1.42;;;21.10;69.90;;;;;;2602451;54;20038;31
2023/05/27 15:01:37;;;;;;;3.40;1.38;;;21.00;69.60;;;;;;2602516;54;21548;31
2023/05/27 15:04:33;;;;;;;3.47;1.60;;;21.00;69.50;;;;;;2602741;54;20399;31
2023/05/27 15:10:19;;;;;;;3.50;1.35;;;20.90;69.70;;;;;;2603451;54;20053;31
2023/05/27 15:13:12;;;;;;;4.05;1.30;;;20.90;70.40;;;;;;2603148;54;20027;31
2023/05/27 15:21:56;;;;;;;3.20;1.15;;;20.80;70.30;;;;;;2603584;54;20034;31
2023/05/27 15:24:31;;;;;;;4.10;1.50;;;20.70;71.30;;;;;;2603103;54;21544;31
2023/05/27 15:27:16;;;;;;;3.40;1.05;;;20.80;71.40;;;;;;2603014;54;20916;31
2023/05/27 15:29:52;;;;;;;3.95;1.17;;;20.80;71.60;;;;;;2603218;54;20023;31
2023/05/27 15:35:23;;;;;;;2.67;1.10;;;20.80;69.90;;;;;;2603541;54;20108;31
2023/05/27 15:38:12;;;;;;;2.42;1.20;;;20.70;70.40;;;;;;2603395;54;20062;31
2023/05/27 15:40:54;;;;;;;4.50;1.50;;;20.70;70.70;;;;;;2603583;54;20030;31
2023/05/27 15:49:52;;;;;;;3.23;1.13;;;20.60;69.00;;;;;;2602954;54;20034;31
2023/05/27 15:58:47;;;;;;;3.22;1.30;;;20.60;69.60;;;;;;2603257;54;20438;31
2023/05/27 16:01:22;;;;;;;4.30;1.15;;;20.60;70.40;;;;;;2602359;54;20837;31
2023/05/27 16:13:37;;;;;;;4.13;0.95;;;20.40;69.30;;;;;;2602232;54;20886;31
2023/05/27 16:19:07;;;;;;;2.55;1.30;;;20.40;70.60;;;;;;2602277;54;20068;31
2023/05/27 16:31:05;;;;;;;3.90;1.47;;;20.30;71.00;;;;;;2601915;54;20922;31
2023/05/27 16:33:52;;;;;;;5.65;1.50;;;20.30;70.40;;;;;;2601686;54;20751;31
2023/05/27 16:42:57;;;;;;;3.40;1.25;;;20.30;71.30;;;;;;2610633;54;20014;31
2023/05/27 16:45:49;;;;;;;4.83;1.57;;;20.20;70.20;;;;;;2621254;46;20042;31
2023/05/27 19:01:30;;;;;;;7.18;4.18;;;17.80;82.00;;;;;;2602369;54;20041;31
2023/05/27 19:44:37;;;;;;;8.20;3.13;;;16.80;85.70;;;;;;2602720;54;20038;31
2023/05/27 19:50:13;;;;;;;14.57;5.85;;;16.60;86.80;;;;;;2601772;39;20274;31
2023/05/27 19:58:47;;;;;;;10.90;4.55;;;16.40;88.10;;;;;;2603159;54;20419;31
2023/05/27 20:01:27;;;;;;;11.40;3.50;;;16.30;88.20;;;;;;2603070;54;20040;31
2023/05/27 20:07:02;;;;;;;4.45;2.55;;;16.20;89.70;;;;;;2602875;54;20034;31
2023/05/27 20:12:38;;;;;;;6.90;2.40;;;16.10;90.30;;;;;;2602963;54;19950;31
2023/05/27 20:15:16;;;;;;;4.88;2.67;;;16.00;90.50;;;;;;2602880;54;20038;31
2023/05/27 20:17:55;;;;;;;4.70;2.40;;;15.90;91.30;;;;;;2602652;54;20034;31
2023/05/27 20:23:46;;;;;;;7.55;2.60;;;15.70;92.70;;;;;;2618927;39;21396;31
2023/05/27 20:29:14;;;;;;;4.10;2.70;;;15.50;93.90;;;;;;2603139;54;20155;31
2023/05/27 20:31:52;;;;;;;7.00;2.95;;;15.50;94.30;;;;;;2602922;54;20045;31
2023/05/27 20:37:04;;;;;;;8.47;3.40;;;15.30;95.50;;;;;;2602943;54;20033;31
2023/05/27 20:39:40;;;;;;;7.90;3.30;;;15.20;96.80;;;;;;2602955;54;20093;31
2023/05/27 20:42:18;;;;;;;7.47;2.85;;;15.10;98.40;;;;;;2602862;54;20042;31
2023/05/27 20:44:54;;;;;;;6.93;2.83;;;14.90;98.60;;;;;;2619031;39;20374;31
2023/05/27 20:47:30;;;;;;;;;;;14.90;99.90;;;;;;2603062;54;20049;31
2023/05/27 20:50:05;;;;;;;6.50;2.50;;;14.80;99.90;;;;;;2603081;54;19935;31
2023/05/27 20:52:47;;;;;;;8.30;3.30;;;14.70;99.90;;;;;;2621289;46;20056;31
2023/05/27 20:55:29;;;;;;;7.72;3.47;;;14.70;99.90;;;;;;2602145;54;20916;31
2023/05/27 20:58:04;;;;;;;6.60;3.65;;;14.50;99.90;;;;;;2603015;54;20030;31
2023/05/27 21:00:40;;;;;;;11.73;3.70;;;14.50;99.90;;;;;;2603024;54;20093;31
2023/05/27 21:03:18;;;;;;;5.63;2.65;;;14.40;99.90;;;;;;2602569;54;20045;31
2023/05/27 21:05:54;;;;;;;7.93;4.00;;;14.30;99.90;;;;;;2621461;46;20097;31
2023/05/27 21:08:33;;;;;;;6.00;3.08;;;14.20;99.90;;;;;;2621508;47;20042;31
2023/05/27 21:11:23;;;;;;;7.70;3.45;;;14.20;99.90;;;;;;2602854;54;20770;31
2023/05/27 21:13:59;;;;;;;6.07;3.50;;;14.10;99.90;;;;;;2602805;54;20160;31
2023/05/27 21:16:34;;;;;;;5.60;3.23;;;14.10;99.90;;;;;;2602836;54;21147;31
2023/05/27 21:19:08;;;;;;;;;;;14.10;99.90;;;;;;2603407;54;20841;31
2023/05/27 21:21:44;;;;;;;6.55;3.30;;;14.00;99.90;;;;;;2603408;54;19938;31
2023/05/27 21:24:22;;;;;;;;;;;13.90;99.90;;;;;;2602500;54;20030;31
2023/05/27 21:26:58;;;;;;;8.50;3.13;;;13.90;99.90;;;;;;2602729;54;20970;31
2023/05/27 21:29:33;;;;;;;7.68;3.60;;;13.90;99.90;;;;;;2621290;47;20026;31
2023/05/27 21:32:09;;;;;;;7.27;3.63;;;13.80;99.90;;;;;;2602713;54;20045;31
2023/05/27 21:34:45;;;;;;;8.73;3.97;;;13.80;99.90;;;;;;2621097;47;20772;31
2023/05/27 21:37:22;;;;;;;7.50;4.80;;;13.70;99.90;;;;;;2602823;54;20030;31
2023/05/27 21:40:00;;;;;;;9.77;3.67;;;13.70;99.90;;;;;;2620855;47;20029;31
2023/05/27 21:42:35;;;;;;;10.57;4.43;;;13.70;99.90;;;;;;2602545;54;20046;31
2023/05/27 21:45:12;;;;;;;8.85;4.95;;;13.60;99.90;;;;;;2603359;54;20029;31
2023/05/27 21:47:47;;;;;;;7.65;4.35;;;13.60;99.90;;;;;;2618102;47;20092;31
2023/05/27 21:50:24;;;;;;;11.43;5.47;;;13.50;99.90;;;;;;2621232;47;20031;31
2023/05/27 21:53:00;;;;;;;8.85;4.45;;;13.50;99.90;;;;;;2620907;47;20037;31
2023/05/27 21:55:39;;;;;;;;;;;13.40;99.90;;;;;;2603083;54;20046;31
2023/05/27 21:58:13;;;;;;;9.93;4.00;;;13.40;99.90;;;;;;2602762;54;20733;31
2023/05/27 22:00:49;;;;;;;7.27;3.90;;;13.30;99.90;;;;;;2602776;54;20847;31
2023/05/27 22:03:26;;;;;;;;;;;13.30;99.90;;;;;;2602846;54;20337;31
2023/05/27 22:06:02;;;;;;;5.07;3.45;;;13.20;99.90;;;;;;2602491;54;20845;31
2023/05/27 22:08:37;;;;;;;7.78;4.10;;;13.20;99.90;;;;;;2602746;54;20960;31
2023/05/27 22:11:16;;;;;;;9.47;4.43;;;13.10;99.90;;;;;;2646953;39;21499;31
2023/05/27 22:13:52;;;;;;;7.88;4.07;;;13.10;99.90;;;;;;2621386;47;20287;31
2023/05/27 22:16:27;;;;;;;;;;;13.00;99.90;;;;;;2603566;54;20073;31
2023/05/27 22:19:02;;;;;;;9.70;4.82;;;13.00;99.90;;;;;;2603321;54;20698;31
2023/05/27 22:21:38;;;;;;;;;;;13.00;99.90;;;;;;2603939;54;20959;31
2023/05/27 22:24:13;;;;;;;7.50;4.30;;;12.90;99.90;;;;;;2603454;54;20345;31
2023/05/27 22:26:52;;;;;;;9.10;3.60;;;12.80;99.90;;;;;;2603456;54;20095;31
2023/05/27 22:29:28;;;;;;;8.68;4.32;;;12.80;99.90;;;;;;2603695;54;20262;31
2023/05/27 22:32:03;;;;;;;8.07;4.40;;;12.70;99.90;;;;;;2603107;54;20764;31
2023/05/27 22:34:38;;;;;;;8.50;4.30;;;12.70;99.90;;;;;;2621800;46;20861;31
2023/05/27 22:37:13;;;;;;;9.73;4.22;;;12.70;99.90;;;;;;2603480;54;20026;31
2023/05/27 22:39:47;;;;;;;7.57;3.60;;;12.60;99.90;;;;;;2603169;54;20027;31
2023/05/27 22:42:25;;;;;;;12.05;4.40;;;12.60;99.90;;;;;;2621678;46;20151;31
2023/05/27 22:45:00;;;;;;;8.23;3.95;;;12.60;99.90;;;;;;2603282;54;20050;31
2023/05/27 22:47:38;;;;;;;6.85;3.25;;;12.50;99.90;;;;;;2621660;46;19949;31
2023/05/27 22:50:13;;;;;;;8.95;3.90;;;12.50;99.90;;;;;;2603365;54;20740;31
2023/05/27 22:52:50;;;;;;;8.18;4.07;;;12.50;99.90;;;;;;2603474;54;20037;31
2023/05/27 22:55:27;;;;;;;7.05;4.07;;;12.40;99.90;;;;;;2603269;54;20069;31
2023/05/27 22:58:05;;;;;;;6.45;3.50;;;12.30;99.90;;;;;;2608293;39;20337;31
2023/05/27 23:00:40;;;;;;;5.97;3.33;;;12.30;99.90;;;;;;2603155;54;20808;31
2023/05/27 23:03:15;;;;;;;7.78;4.22;;;12.30;99.90;;;;;;2603454;54;20249;31
2023/05/27 23:05:49;;;;;;;6.95;3.72;;;12.20;99.90;;;;;;2603388;54;20034;31
2023/05/27 23:08:24;;;;;;;13.82;3.80;;;12.10;99.90;;;;;;2603195;54;20828;31
2023/05/27 23:11:02;;;;;;;5.95;3.58;;;12.10;99.90;;;;;;2603353;54;20104;31
2023/05/27 23:13:39;;;;;;;7.57;3.72;;;12.10;99.90;;;;;;2603310;54;20022;31
2023/05/27 23:16:15;;;;;;;6.45;3.72;;;12.10;99.90;;;;;;2603442;54;19942;31
2023/05/27 23:18:49;;;;;;;6.15;3.20;;;12.00;99.90;;;;;;2603225;54;20036;31
2023/05/27 23:21:25;;;;;;;6.50;3.72;;;12.00;99.90;;;;;;2603194;54;20128;31
2023/05/27 23:24:01;;;;;;;8.80;3.95;;;11.90;99.90;;;;;;2621595;46;19935;31
2023/05/27 23:26:35;;;;;;;6.27;2.80;;;11.90;99.90;;;;;;2602997;54;20907;31
2023/05/27 23:29:14;;;;;;;6.53;3.63;;;11.90;99.90;;;;;;2603314;54;20089;31
2023/05/27 23:31:50;;;;;;;6.80;3.35;;;11.80;99.90;;;;;;2603242;54;20046;31
2023/05/27 23:34:25;;;;;;;9.07;4.53;;;11.80;99.90;;;;;;2603295;54;20076;31
2023/05/27 23:37:00;;;;;;;8.55;3.17;;;11.80;99.90;;;;;;2603099;54;20889;31
2023/05/27 23:39:34;;;;;;;6.03;3.70;;;11.80;99.90;;;;;;2603124;54;20959;31
2023/05/27 23:42:09;;;;;;;7.50;3.97;;;11.70;99.90;;;;;;2603040;54;20809;31
2023/05/27 23:44:48;;;;;;;5.00;2.70;;;11.70;99.90;;;;;;2603309;54;20046;31
2023/05/27 23:47:24;;;;;;;4.97;2.83;;;11.70;99.90;;;;;;2621587;46;20254;31
2023/05/27 23:49:58;;;;;;;4.90;2.80;;;11.60;99.90;;;;;;2603237;54;20031;31
2023/05/27 23:52:33;;;;;;;7.10;3.15;;;11.60;99.90;;;;;;2603210;54;20128;31
2023/05/27 23:55:12;;;;;;;7.45;3.30;;;11.60;99.90;;;;;;2603256;54;20046;31
2023/05/27 23:57:48;;;;;;;6.30;3.00;;;11.50;99.90;;;;;;2603065;54;20052;31
